Time;durP1;ratioP1;P1;durP2;ratioP2;P2;SDS_P1;SDS_P2;PMS_P1;PMS_P2;Temp;Humidity;BMP_temperature;BMP_pressure;BME280_temperature;BME280_humidity;BME280_pressure;Samples;Min_cycle;Max_cycle;Signal;HPM_P1;HPM_P2
2021/12/02 00:02:23;;;;;;;0.40;0.27;;;-1.40;91.30;;;;;;2687429;53;20143;-45
2021/12/02 00:04:50;;;;;;;1.13;0.83;;;-1.50;90.90;;;;;;2687221;53;20066;-43
2021/12/02 00:07:17;;;;;;;2.73;1.00;;;-1.50;91.30;;;;;;2687404;53;20131;-43
2021/12/02 00:09:47;;;;;;;1.77;0.80;;;-1.50;91.20;;;;;;2687321;53;20457;-45
2021/12/02 00:12:14;;;;;;;3.10;0.50;;;-1.50;91.20;;;;;;2687401;53;20530;-42
2021/12/02 00:14:46;;;;;;;2.03;0.80;;;-1.60;91.70;;;;;;2675093;53;20143;-44
2021/12/02 00:17:21;;;;;;;4.50;0.73;;;-1.60;91.30;;;;;;2679933;53;20546;-46
2021/12/02 00:22:54;;;;;;;3.17;1.13;;;-1.60;91.50;;;;;;2663817;53;20068;-49
2021/12/02 00:25:21;;;;;;;1.13;0.40;;;-1.70;91.50;;;;;;2660084;53;20076;-44
2021/12/02 00:27:48;;;;;;;1.17;0.80;;;-1.70;91.50;;;;;;2659587;53;20570;-50
2021/12/02 00:30:15;;;;;;;1.43;0.60;;;-1.70;91.80;;;;;;2664050;53;20063;-52
2021/12/02 00:32:43;;;;;;;1.30;0.60;;;-1.70;91.90;;;;;;2657439;53;20128;-43
2021/12/02 00:35:10;;;;;;;2.80;0.87;;;-1.80;92.60;;;;;;2657581;53;20083;-42
2021/12/02 00:37:37;;;;;;;1.17;0.70;;;-1.90;93.10;;;;;;2657481;53;20533;-42
2021/12/02 00:40:05;;;;;;;2.60;0.63;;;-1.80;93.30;;;;;;2657400;53;20079;-41
2021/12/02 00:42:34;;;;;;;2.17;0.80;;;-1.90;93.60;;;;;;2657442;53;20105;-45
2021/12/02 00:45:01;;;;;;;1.57;0.80;;;-1.90;93.70;;;;;;2660796;53;20075;-42
2021/12/02 00:47:28;;;;;;;1.03;0.47;;;-1.80;93.60;;;;;;2667519;53;20074;-42
2021/12/02 00:49:55;;;;;;;0.63;0.43;;;-1.90;93.40;;;;;;2679543;53;20719;-42
2021/12/02 00:52:22;;;;;;;0.73;0.50;;;-1.90;93.00;;;;;;2674742;53;20070;-45
2021/12/02 00:54:49;;;;;;;2.43;0.47;;;-1.90;92.90;;;;;;2672638;53;20133;-60
2021/12/02 00:57:16;;;;;;;3.60;0.90;;;-1.90;93.40;;;;;;2676969;53;20065;-47
2021/12/02 00:59:43;;;;;;;2.17;0.93;;;-1.90;93.10;;;;;;2677065;53;20066;-43
2021/12/02 01:02:11;;;;;;;1.07;0.50;;;-1.90;92.60;;;;;;2672624;53;20518;-42
2021/12/02 01:04:38;;;;;;;6.00;0.60;;;-1.90;92.50;;;;;;2686402;53;20062;-41
2021/12/02 01:07:05;;;;;;;2.33;1.00;;;-2.00;92.80;;;;;;2682027;53;20062;-43
2021/12/02 01:09:32;;;;;;;4.47;1.00;;;-2.00;93.00;;;;;;2684669;53;20132;-43
2021/12/02 01:11:59;;;;;;;2.63;0.70;;;-2.00;93.20;;;;;;2698458;53;20069;-43
2021/12/02 01:14:27;;;;;;;2.53;0.60;;;-2.00;93.30;;;;;;2686473;53;20066;-41
2021/12/02 01:16:54;;;;;;;2.23;0.67;;;-1.90;92.90;;;;;;2681419;53;20069;-42
2021/12/02 01:19:21;;;;;;;7.90;0.80;;;-2.00;93.40;;;;;;2681698;53;20557;-52
2021/12/02 01:21:48;;;;;;;1.77;0.83;;;-2.00;93.40;;;;;;2686436;53;20066;-41
2021/12/02 01:24:16;;;;;;;0.93;0.43;;;-2.00;93.30;;;;;;2681476;53;20090;-41
2021/12/02 01:26:53;;;;;;;2.27;1.03;;;-2.00;92.70;;;;;;2681542;53;20058;-42
2021/12/02 01:29:24;;;;;;;0.83;0.53;;;-2.00;93.20;;;;;;2690835;53;20175;-43
2021/12/02 01:31:59;;;;;;;3.37;0.50;;;-2.10;93.50;;;;;;2681713;53;20124;-41
2021/12/02 01:34:27;;;;;;;1.43;0.83;;;-2.10;93.60;;;;;;2681803;53;20560;-41
2021/12/02 01:36:55;;;;;;;4.13;1.23;;;-2.10;93.20;;;;;;2681634;53;20600;-42
2021/12/02 01:39:22;;;;;;;2.73;1.10;;;-2.20;93.70;;;;;;2676966;53;20092;-54
2021/12/02 01:41:52;;;;;;;4.03;1.37;;;-2.20;94.00;;;;;;2681623;53;20054;-42
2021/12/02 01:44:20;;;;;;;1.33;0.60;;;-2.20;94.20;;;;;;2681530;53;20059;-41
2021/12/02 01:46:53;;;;;;;1.00;0.60;;;-2.20;94.20;;;;;;2681537;53;20557;-41
2021/12/02 01:49:22;;;;;;;6.43;1.10;;;-2.20;94.20;;;;;;2675684;53;20133;-42
2021/12/02 01:51:51;;;;;;;2.37;0.90;;;-2.30;94.10;;;;;;2678798;53;20132;-41
2021/12/02 01:54:23;;;;;;;1.20;0.77;;;-2.20;93.80;;;;;;2681613;53;20089;-42
2021/12/02 01:57:03;;;;;;;2.40;1.07;;;-2.30;93.50;;;;;;2686329;53;20070;-42
2021/12/02 01:59:35;;;;;;;1.63;0.90;;;-2.20;93.60;;;;;;2677194;53;20066;-42
2021/12/02 02:02:10;;;;;;;2.23;1.00;;;-2.20;93.90;;;;;;2690864;53;20069;-43
2021/12/02 02:04:37;;;;;;;7.85;0.85;;;-2.10;93.60;;;;;;2687074;53;20069;-42
2021/12/02 02:07:12;;;;;;;4.00;1.30;;;-2.10;93.60;;;;;;2682645;53;20066;-42
2021/12/02 02:09:39;;;;;;;0.70;0.30;;;-2.10;93.80;;;;;;2687018;53;20058;-41
2021/12/02 02:12:09;;;;;;;1.50;0.97;;;-2.00;93.10;;;;;;2691906;53;20125;-41
2021/12/02 02:14:36;;;;;;;3.40;1.10;;;-2.00;93.70;;;;;;2674573;53;20079;-40
2021/12/02 02:17:41;;;;;;;3.00;1.53;;;-2.00;93.60;;;;;;2670067;53;20467;-42
2021/12/02 02:19:57;;;;;;;1.73;0.87;;;-1.90;93.20;;;;;;2668742;53;20066;-42
2021/12/02 02:22:24;;;;;;;1.53;0.50;;;-1.90;92.40;;;;;;2681292;53;20113;-59
2021/12/02 02:24:52;;;;;;;3.47;1.20;;;-1.80;91.00;;;;;;2664509;53;20072;-48
2021/12/02 02:27:21;;;;;;;5.40;1.83;;;-1.80;91.30;;;;;;2664694;53;20147;-40
2021/12/02 02:29:48;;;;;;;0.80;0.40;;;-1.70;91.20;;;;;;2659747;53;20075;-43
2021/12/02 02:32:15;;;;;;;5.20;2.20;;;-1.60;91.80;;;;;;2660113;53;20190;-41
2021/12/02 02:34:42;;;;;;;5.67;2.37;;;-1.60;92.50;;;;;;2664294;53;20111;-41
2021/12/02 02:37:09;;;;;;;4.40;1.67;;;-1.70;91.80;;;;;;2660057;53;20635;-40
2021/12/02 02:39:38;;;;;;;6.07;2.57;;;-1.70;92.00;;;;;;2659861;53;20083;-43
2021/12/02 02:42:07;;;;;;;3.73;1.77;;;-1.70;92.70;;;;;;2656826;53;20081;-41
2021/12/02 02:44:35;;;;;;;7.10;2.40;;;-1.70;92.80;;;;;;2658210;53;20120;-42
2021/12/02 02:47:02;;;;;;;5.33;2.80;;;-1.60;93.50;;;;;;2665866;53;20141;-42
2021/12/02 02:49:29;;;;;;;3.80;1.50;;;-1.60;93.90;;;;;;2665107;53;20158;-41
2021/12/02 02:51:56;;;;;;;6.47;2.43;;;-1.60;93.50;;;;;;2665351;53;20067;-48
2021/12/02 02:54:23;;;;;;;4.37;2.43;;;-1.60;93.80;;;;;;2665404;53;20104;-42
2021/12/02 02:57:01;;;;;;;5.93;2.73;;;-1.70;93.20;;;;;;2665183;53;20578;-41
2021/12/02 03:02:27;;;;;;;7.83;1.93;;;-1.70;93.90;;;;;;2671617;53;20069;-40
2021/12/02 03:05:35;;;;;;;7.07;2.37;;;-1.60;94.00;;;;;;2682142;53;20478;-43
2021/12/02 03:07:49;;;;;;;13.20;3.30;;;-1.60;94.30;;;;;;2681513;53;20129;-43
2021/12/02 03:10:23;;;;;;;6.40;2.37;;;-1.60;94.30;;;;;;2683029;53;20135;-43
2021/12/02 03:17:45;;;;;;;6.83;2.47;;;-1.60;94.10;;;;;;2698800;53;20185;-44
2021/12/02 03:20:13;;;;;;;7.70;2.83;;;-1.60;93.90;;;;;;2698505;53;20073;-47
2021/12/02 03:22:40;;;;;;;9.83;3.70;;;-1.60;94.20;;;;;;2698748;53;20511;-47
2021/12/02 03:25:08;;;;;;;16.53;3.20;;;-1.50;94.00;;;;;;2698613;53;20127;-39
2021/12/02 03:27:35;;;;;;;6.77;3.07;;;-1.50;94.30;;;;;;2703553;52;20124;-41
2021/12/02 03:30:06;;;;;;;4.07;2.03;;;-1.50;94.80;;;;;;2698568;53;20540;-40
2021/12/02 03:32:35;;;;;;;9.97;1.97;;;-1.50;94.70;;;;;;2694201;53;20401;-44
2021/12/02 03:35:02;;;;;;;7.03;3.43;;;-1.50;94.70;;;;;;2698879;52;20085;-41
2021/12/02 03:37:29;;;;;;;10.30;3.90;;;-1.50;94.40;;;;;;2694019;53;20065;-42
2021/12/02 03:39:56;;;;;;;11.80;4.90;;;-1.50;94.90;;;;;;2698885;52;20073;-41
2021/12/02 03:42:23;;;;;;;8.00;3.50;;;-1.50;94.90;;;;;;2687353;53;20074;-42
2021/12/02 03:44:50;;;;;;;12.13;4.17;;;-1.50;95.00;;;;;;2692502;53;20065;-42
2021/12/02 03:47:17;;;;;;;7.27;3.23;;;-1.50;94.90;;;;;;2687279;53;20146;-40
2021/12/02 03:49:44;;;;;;;11.70;3.33;;;-1.50;94.80;;;;;;2678884;53;20071;-41
2021/12/02 03:52:11;;;;;;;7.43;2.03;;;-1.50;95.30;;;;;;2674282;53;20067;-40
2021/12/02 03:54:38;;;;;;;10.17;2.70;;;-1.50;95.10;;;;;;2669641;53;20075;-44
2021/12/02 03:57:05;;;;;;;5.83;1.77;;;-1.50;95.00;;;;;;2673366;53;20139;-41
2021/12/02 03:59:32;;;;;;;6.77;2.70;;;-1.50;94.90;;;;;;2673265;53;20092;-45
2021/12/02 04:02:00;;;;;;;12.97;3.97;;;-1.60;94.90;;;;;;2673568;53;20452;-42
2021/12/02 04:04:27;;;;;;;5.53;2.50;;;-1.60;95.20;;;;;;2662125;53;20069;-42
2021/12/02 04:06:54;;;;;;;6.57;2.87;;;-1.60;95.10;;;;;;2662210;53;20073;-42
2021/12/02 04:09:23;;;;;;;8.80;3.90;;;-1.60;95.60;;;;;;2662101;53;20141;-45
2021/12/02 04:14:30;;;;;;;8.93;3.67;;;-1.60;95.90;;;;;;2663039;53;20520;-42
2021/12/02 04:17:01;;;;;;;7.93;3.90;;;-1.60;95.90;;;;;;2662968;53;20099;-41
2021/12/02 04:19:28;;;;;;;6.83;2.67;;;-1.50;96.10;;;;;;2673918;53;20134;-41
2021/12/02 04:21:57;;;;;;;5.07;2.17;;;-1.50;96.00;;;;;;2669624;53;20459;-39
2021/12/02 04:24:24;;;;;;;10.23;3.90;;;-1.50;96.00;;;;;;2669381;53;20157;-48
2021/12/02 04:26:52;;;;;;;9.00;3.10;;;-1.50;96.40;;;;;;2663620;53;20154;-38
2021/12/02 04:29:19;;;;;;;8.43;3.83;;;-1.50;96.50;;;;;;2663823;53;20584;-40
2021/12/02 04:31:47;;;;;;;5.67;1.93;;;-1.40;96.60;;;;;;2663560;53;20075;-41
2021/12/02 04:34:14;;;;;;;7.70;3.50;;;-1.40;96.70;;;;;;2665953;53;20079;-40
2021/12/02 04:36:41;;;;;;;6.97;3.37;;;-1.40;97.00;;;;;;2674129;53;20130;-43
2021/12/02 04:39:09;;;;;;;7.50;2.13;;;-1.40;96.50;;;;;;2674045;53;20079;-42
2021/12/02 04:41:37;;;;;;;5.60;2.70;;;-1.40;96.60;;;;;;2666343;53;20097;-43
2021/12/02 04:44:04;;;;;;;12.40;4.83;;;-1.30;96.90;;;;;;2676805;53;20080;-43
2021/12/02 04:46:31;;;;;;;10.93;3.77;;;-1.40;97.00;;;;;;2672648;53;20489;-46
2021/12/02 04:48:59;;;;;;;7.87;3.47;;;-1.30;96.80;;;;;;2693161;53;20070;-43
2021/12/02 04:51:26;;;;;;;9.70;3.07;;;-1.30;96.80;;;;;;2688101;53;20538;-42
2021/12/02 04:53:53;;;;;;;14.10;4.27;;;-1.30;97.20;;;;;;2692944;53;20088;-43
2021/12/02 04:56:20;;;;;;;6.30;3.17;;;-1.30;97.20;;;;;;2693097;53;20162;-41
2021/12/02 04:58:47;;;;;;;14.80;4.27;;;-1.30;97.40;;;;;;2681341;53;20096;-41
2021/12/02 05:01:14;;;;;;;8.23;2.73;;;-1.20;97.60;;;;;;2676926;53;20145;-41
2021/12/02 05:03:41;;;;;;;14.20;5.60;;;-1.20;97.70;;;;;;2682869;53;20523;-53
2021/12/02 05:06:08;;;;;;;14.77;5.77;;;-1.10;97.80;;;;;;2687273;53;20070;-43
2021/12/02 05:08:35;;;;;;;12.47;4.20;;;-1.00;97.50;;;;;;2682509;53;20073;-38
2021/12/02 05:11:02;;;;;;;6.80;2.17;;;-1.00;96.90;;;;;;2674992;53;20079;-40
2021/12/02 05:13:29;;;;;;;11.63;3.90;;;-0.90;95.60;;;;;;2674992;53;20079;-44
2021/12/02 05:15:56;;;;;;;12.10;4.03;;;-0.90;95.90;;;;;;2663413;53;20192;-42
2021/12/02 05:18:23;;;;;;;17.10;5.90;;;-0.90;96.30;;;;;;2667090;53;20213;-41
2021/12/02 05:20:50;;;;;;;5.77;2.20;;;-0.80;95.90;;;;;;2667673;53;20072;-38
2021/12/02 05:23:17;;;;;;;6.27;2.87;;;-0.70;94.70;;;;;;2662739;53;20081;-43
2021/12/02 05:25:44;;;;;;;8.43;3.43;;;-0.70;94.50;;;;;;2667456;53;20064;-40
2021/12/02 05:28:12;;;;;;;13.20;5.57;;;-0.70;95.30;;;;;;2667535;53;20078;-42
2021/12/02 05:30:39;;;;;;;11.97;4.60;;;-0.70;95.70;;;;;;2667456;53;20174;-39
2021/12/02 05:33:06;;;;;;;10.97;5.30;;;-0.70;95.60;;;;;;2673631;53;20083;-41
2021/12/02 05:35:33;;;;;;;10.07;4.73;;;-0.70;95.50;;;;;;2673733;53;20118;-43
2021/12/02 05:38:00;;;;;;;8.30;3.93;;;-0.70;95.60;;;;;;2673555;53;20546;-42
2021/12/02 05:40:27;;;;;;;3.20;1.30;;;-0.70;95.80;;;;;;2667235;53;20068;-40
2021/12/02 05:42:54;;;;;;;12.63;3.57;;;-0.70;95.30;;;;;;2662381;53;20133;-37
2021/12/02 05:45:21;;;;;;;5.80;3.00;;;-0.70;95.20;;;;;;2662554;53;20076;-40
2021/12/02 05:47:48;;;;;;;6.93;2.53;;;-0.70;95.10;;;;;;2656813;53;20076;-42
2021/12/02 05:50:15;;;;;;;10.67;3.50;;;-0.60;95.40;;;;;;2662404;53;20068;-40
2021/12/02 05:52:42;;;;;;;12.27;4.17;;;-0.60;95.10;;;;;;2663726;53;20560;-39
2021/12/02 05:55:10;;;;;;;8.93;3.57;;;-0.60;95.00;;;;;;2656764;53;20065;-53
2021/12/02 05:57:37;;;;;;;6.60;2.00;;;-0.60;95.10;;;;;;2656703;53;20072;-49
2021/12/02 06:00:06;;;;;;;10.33;2.83;;;-0.60;95.10;;;;;;2656936;53;20077;-40
2021/12/02 06:02:36;;;;;;;6.20;1.80;;;-0.50;94.80;;;;;;2657048;53;20189;-45
2021/12/02 06:05:07;;;;;;;10.50;4.13;;;-0.50;94.80;;;;;;2656814;53;20104;-44
2021/12/02 06:07:35;;;;;;;12.00;3.93;;;-0.50;95.10;;;;;;2657138;53;20143;-55
2021/12/02 06:10:03;;;;;;;9.40;3.20;;;-0.50;94.50;;;;;;2656782;53;20575;-41
2021/12/02 06:12:30;;;;;;;8.70;3.73;;;-0.50;94.30;;;;;;2668221;53;20138;-40
2021/12/02 06:14:58;;;;;;;9.57;3.13;;;-0.50;94.20;;;;;;2664288;53;20139;-40
2021/12/02 06:17:25;;;;;;;12.27;5.53;;;-0.50;94.50;;;;;;2664043;53;20064;-41
2021/12/02 06:19:52;;;;;;;10.33;2.93;;;-0.50;94.80;;;;;;2684832;53;20067;-41
2021/12/02 06:22:19;;;;;;;7.80;3.67;;;-0.50;94.50;;;;;;2685901;53;20627;-41
2021/12/02 06:24:53;;;;;;;5.63;2.60;;;-0.50;94.40;;;;;;2681493;53;20062;-41
2021/12/02 06:27:20;;;;;;;8.40;2.60;;;-0.40;94.70;;;;;;2692080;53;20465;-40
2021/12/02 06:29:47;;;;;;;4.70;1.90;;;-0.50;93.90;;;;;;2691953;53;20143;-41
2021/12/02 06:32:14;;;;;;;5.00;1.67;;;-0.50;94.00;;;;;;2692241;53;20062;-39
2021/12/02 06:34:41;;;;;;;4.80;2.43;;;-0.50;94.10;;;;;;2692090;53;20146;-46
2021/12/02 06:37:09;;;;;;;7.30;3.50;;;-0.40;94.30;;;;;;2692204;53;20070;-58
2021/12/02 06:39:36;;;;;;;4.80;1.93;;;-0.40;94.20;;;;;;2687583;53;20129;-42
2021/12/02 06:42:03;;;;;;;14.40;4.83;;;-0.30;93.90;;;;;;2692036;53;20141;-42
2021/12/02 06:44:32;;;;;;;6.07;2.97;;;-0.30;94.10;;;;;;2692146;53;20074;-42
2021/12/02 06:46:59;;;;;;;10.80;2.53;;;-0.20;94.30;;;;;;2688734;53;20429;-40
2021/12/02 06:49:27;;;;;;;6.63;2.60;;;-0.10;93.90;;;;;;2698059;53;20173;-38
2021/12/02 06:51:56;;;;;;;5.30;2.90;;;0.10;93.40;;;;;;2694025;53;20065;-41
2021/12/02 06:54:23;;;;;;;7.37;4.13;;;0.10;93.20;;;;;;2698779;52;20124;-40
2021/12/02 06:56:50;;;;;;;6.60;2.93;;;0.30;93.10;;;;;;2698993;53;20064;-44
2021/12/02 06:59:18;;;;;;;8.63;3.67;;;0.30;93.10;;;;;;2694054;53;20068;-42
2021/12/02 07:01:46;;;;;;;9.53;4.03;;;0.30;92.80;;;;;;2689401;53;20088;-38
2021/12/02 07:04:13;;;;;;;5.30;2.63;;;0.10;93.00;;;;;;2703371;52;20088;-43
2021/12/02 07:06:40;;;;;;;9.77;5.20;;;0.10;93.00;;;;;;2698896;53;20512;-58
2021/12/02 07:09:07;;;;;;;7.87;3.13;;;0.10;92.90;;;;;;2698617;53;20159;-43
2021/12/02 07:11:34;;;;;;;4.43;1.93;;;0.10;93.00;;;;;;2698651;53;20521;-42
2021/12/02 07:14:12;;;;;;;8.30;4.10;;;0.20;92.90;;;;;;2698698;53;20076;-43
2021/12/02 07:16:40;;;;;;;4.80;2.93;;;0.20;93.10;;;;;;2699089;52;20061;-46
2021/12/02 07:19:08;;;;;;;4.47;2.83;;;0.10;93.50;;;;;;2698779;53;20060;-43
2021/12/02 07:21:39;;;;;;;7.33;4.10;;;0.10;93.40;;;;;;2703259;52;20065;-42
2021/12/02 07:24:09;;;;;;;2.97;1.43;;;0.10;93.20;;;;;;2693961;53;20061;-41
2021/12/02 07:26:40;;;;;;;3.30;1.17;;;0.10;93.20;;;;;;2694157;53;20564;-41
2021/12/02 07:29:11;;;;;;;2.40;1.30;;;0.10;93.80;;;;;;2698740;53;20068;-44
2021/12/02 07:31:40;;;;;;;4.50;1.67;;;0.20;94.30;;;;;;2698815;53;20099;-41
2021/12/02 07:34:07;;;;;;;3.80;1.23;;;0.10;94.00;;;;;;2698295;53;20064;-44
2021/12/02 07:36:34;;;;;;;5.73;2.33;;;0.20;94.10;;;;;;2698584;53;20065;-43
2021/12/02 07:39:08;;;;;;;5.17;2.97;;;0.20;94.10;;;;;;2698800;53;20545;-43
2021/12/02 07:41:39;;;;;;;8.07;4.13;;;0.30;94.20;;;;;;2703302;52;20088;-41
2021/12/02 07:44:06;;;;;;;3.57;2.03;;;0.30;94.00;;;;;;2698843;52;20089;-46
2021/12/02 07:46:33;;;;;;;9.23;3.60;;;0.50;93.50;;;;;;2693235;53;20073;-47
2021/12/02 07:49:00;;;;;;;4.63;2.10;;;0.50;93.40;;;;;;2688172;53;20073;-44
2021/12/02 07:51:29;;;;;;;3.43;1.60;;;0.50;92.60;;;;;;2697557;53;20062;-43
2021/12/02 07:53:58;;;;;;;5.97;3.77;;;0.70;92.80;;;;;;2697496;53;20066;-46
2021/12/02 07:56:26;;;;;;;9.27;4.60;;;0.80;92.90;;;;;;2683516;53;20071;-47
2021/12/02 07:58:53;;;;;;;3.27;1.80;;;0.80;93.20;;;;;;2692851;53;20112;-41
2021/12/02 08:01:20;;;;;;;5.03;2.60;;;0.90;91.60;;;;;;2697484;53;20066;-38
2021/12/02 08:03:47;;;;;;;4.50;1.90;;;0.80;91.60;;;;;;2692737;53;20538;-38
2021/12/02 08:06:15;;;;;;;4.23;2.40;;;0.70;92.30;;;;;;2693080;53;20061;-43
2021/12/02 08:08:44;;;;;;;5.37;2.87;;;0.80;92.20;;;;;;2687339;53;20066;-40
2021/12/02 08:11:11;;;;;;;5.43;2.93;;;0.80;92.50;;;;;;2687485;53;20101;-41
2021/12/02 08:13:38;;;;;;;4.07;1.83;;;0.70;92.60;;;;;;2687230;53;20127;-40
2021/12/02 08:16:07;;;;;;;8.63;4.63;;;0.70;92.30;;;;;;2692137;53;20108;-42
2021/12/02 08:18:34;;;;;;;5.30;2.93;;;0.70;92.70;;;;;;2687401;53;20522;-41
2021/12/02 08:21:01;;;;;;;6.60;3.37;;;0.60;92.50;;;;;;2692216;53;20058;-42
2021/12/02 08:23:29;;;;;;;4.63;2.67;;;0.60;93.30;;;;;;2682767;53;20069;-42
2021/12/02 08:25:56;;;;;;;4.67;1.87;;;0.50;93.20;;;;;;2692037;53;20069;-47
2021/12/02 08:28:23;;;;;;;3.03;1.43;;;0.30;93.70;;;;;;2685093;53;20540;-47
2021/12/02 08:30:50;;;;;;;6.57;2.73;;;0.30;93.80;;;;;;2675844;53;20062;-46
2021/12/02 08:33:19;;;;;;;9.53;3.37;;;0.40;93.40;;;;;;2675837;53;20149;-47
2021/12/02 08:35:46;;;;;;;8.00;3.00;;;0.40;93.90;;;;;;2675918;53;20461;-53
2021/12/02 08:38:15;;;;;;;6.90;2.33;;;0.40;93.90;;;;;;2674195;53;20082;-49
2021/12/02 08:40:43;;;;;;;6.67;3.20;;;0.30;93.70;;;;;;2673326;53;20159;-45
2021/12/02 08:43:13;;;;;;;4.87;2.60;;;0.40;93.70;;;;;;2651810;53;20136;-45
2021/12/02 08:45:43;;;;;;;4.87;2.70;;;0.40;93.50;;;;;;2641350;54;20076;-43
2021/12/02 08:48:11;;;;;;;5.63;2.53;;;0.40;94.00;;;;;;2645062;54;20096;-44
2021/12/02 08:50:38;;;;;;;4.97;2.33;;;0.40;93.60;;;;;;2650115;53;20180;-43
2021/12/02 08:53:06;;;;;;;3.87;1.87;;;0.40;93.60;;;;;;2650204;53;20065;-42
2021/12/02 08:55:33;;;;;;;5.83;3.97;;;0.40;94.10;;;;;;2650503;53;20546;-40
2021/12/02 08:58:01;;;;;;;4.20;2.43;;;0.40;94.40;;;;;;2650737;53;20078;-43
2021/12/02 09:00:35;;;;;;;8.40;3.13;;;0.40;93.60;;;;;;2655779;53;20069;-41
2021/12/02 09:03:04;;;;;;;3.73;2.20;;;0.40;93.90;;;;;;2656182;53;20144;-46
2021/12/02 09:05:31;;;;;;;6.20;2.53;;;0.40;93.90;;;;;;2656126;53;20073;-43
2021/12/02 09:07:58;;;;;;;4.63;2.57;;;0.50;93.60;;;;;;2656193;53;20232;-43
2021/12/02 09:10:26;;;;;;;6.63;3.07;;;0.50;93.70;;;;;;2650310;53;20070;-43
2021/12/02 09:12:53;;;;;;;3.53;1.63;;;0.50;94.20;;;;;;2636766;54;20074;-43
2021/12/02 09:15:21;;;;;;;3.53;2.20;;;0.50;93.80;;;;;;2638930;54;20509;-44
2021/12/02 09:17:48;;;;;;;3.40;2.43;;;0.50;94.10;;;;;;2662805;53;20079;-50
2021/12/02 09:20:15;;;;;;;9.33;4.83;;;0.40;94.30;;;;;;2660048;53;20074;-45
2021/12/02 09:22:43;;;;;;;7.93;3.73;;;0.40;94.60;;;;;;2686206;53;20133;-44
2021/12/02 09:25:11;;;;;;;8.40;4.27;;;0.40;94.80;;;;;;2682179;53;20070;-49
2021/12/02 09:27:39;;;;;;;6.83;3.00;;;0.50;95.00;;;;;;2682377;53;20081;-44
2021/12/02 09:30:06;;;;;;;4.43;2.30;;;0.50;95.20;;;;;;2691000;53;20070;-43
2021/12/02 09:32:34;;;;;;;8.13;2.60;;;0.40;95.10;;;;;;2687130;53;20081;-44
2021/12/02 09:35:01;;;;;;;5.23;2.77;;;0.40;95.30;;;;;;2687135;53;20446;-41
2021/12/02 09:37:28;;;;;;;7.90;3.93;;;0.40;94.80;;;;;;2686584;53;20061;-43
2021/12/02 09:39:56;;;;;;;7.60;3.93;;;0.50;94.70;;;;;;2686764;53;20100;-43
2021/12/02 09:42:24;;;;;;;6.67;2.93;;;0.50;93.90;;;;;;2687235;53;20061;-43
2021/12/02 09:44:55;;;;;;;6.30;2.80;;;0.50;94.00;;;;;;2686804;53;20112;-42
2021/12/02 09:47:22;;;;;;;13.00;5.40;;;0.50;94.10;;;;;;2685637;53;20615;-45
2021/12/02 09:49:50;;;;;;;7.53;3.90;;;0.50;95.10;;;;;;2691323;53;20426;-62
2021/12/02 09:52:19;;;;;;;7.10;4.00;;;0.50;94.80;;;;;;2682206;53;20062;-41
2021/12/02 09:54:57;;;;;;;6.83;2.80;;;0.50;94.60;;;;;;2682176;53;20070;-40
2021/12/02 09:57:28;;;;;;;9.17;4.47;;;0.50;94.80;;;;;;2691023;53;20074;-49
2021/12/02 09:59:56;;;;;;;8.77;4.13;;;0.40;95.20;;;;;;2691454;53;20062;-44
2021/12/02 10:02:24;;;;;;;4.50;2.53;;;0.40;94.50;;;;;;2691524;53;20070;-43
2021/12/02 10:04:58;;;;;;;4.33;2.27;;;0.40;94.30;;;;;;2681886;53;20063;-43
2021/12/02 10:07:34;;;;;;;6.47;2.63;;;0.40;94.30;;;;;;2691320;53;20066;-42
2021/12/02 10:10:12;;;;;;;5.87;3.00;;;0.40;94.20;;;;;;2682031;53;20557;-41
2021/12/02 10:12:49;;;;;;;7.50;3.67;;;0.40;94.70;;;;;;2691363;53;20069;-45
2021/12/02 10:15:18;;;;;;;7.27;3.47;;;0.40;94.50;;;;;;2686403;53;20066;-41
2021/12/02 10:17:48;;;;;;;5.37;2.30;;;0.40;94.70;;;;;;2690960;53;20073;-42
2021/12/02 10:20:29;;;;;;;12.90;5.13;;;0.40;94.80;;;;;;2691393;53;20138;-43
2021/12/02 10:25:55;;;;;;;10.63;5.70;;;0.50;93.80;;;;;;2682989;53;20102;-43
2021/12/02 10:28:23;;;;;;;6.33;4.03;;;0.50;94.20;;;;;;2682634;53;20113;-52
2021/12/02 10:30:53;;;;;;;11.07;4.77;;;0.50;94.20;;;;;;2686365;53;20070;-44
2021/12/02 10:33:39;;;;;;;8.27;3.90;;;0.60;94.50;;;;;;2677421;53;20070;-43
2021/12/02 10:36:44;;;;;;;8.40;3.70;;;0.60;94.00;;;;;;2686750;53;20556;-46
2021/12/02 10:39:19;;;;;;;6.60;3.03;;;0.60;94.30;;;;;;2681786;53;20075;-50
2021/12/02 10:42:00;;;;;;;4.05;1.67;;;0.50;93.90;;;;;;2677192;53;20546;-44
2021/12/02 10:44:33;;;;;;;8.73;3.40;;;0.60;93.70;;;;;;2680685;53;20085;-43
2021/12/02 10:47:14;;;;;;;12.30;3.77;;;0.60;93.90;;;;;;2673258;53;20576;-46
2021/12/02 10:49:51;;;;;;;6.27;2.33;;;0.50;93.90;;;;;;2681774;53;20066;-44
2021/12/02 10:52:23;;;;;;;9.23;3.00;;;0.50;94.40;;;;;;2682003;53;20070;-43
2021/12/02 10:55:03;;;;;;;9.33;3.67;;;0.50;94.60;;;;;;2677430;53;20073;-43
2021/12/02 10:57:32;;;;;;;10.37;4.77;;;0.50;94.60;;;;;;2681947;53;20132;-44
2021/12/02 11:00:06;;;;;;;7.10;3.17;;;0.50;94.10;;;;;;2686823;53;20125;-45
2021/12/02 11:02:39;;;;;;;5.17;2.93;;;0.50;94.50;;;;;;2682096;53;20070;-48
2021/12/02 11:05:10;;;;;;;5.57;2.40;;;0.50;94.40;;;;;;2686948;53;20110;-46
2021/12/02 11:07:42;;;;;;;5.77;3.20;;;0.50;93.90;;;;;;2691662;53;20070;-45
2021/12/02 11:10:14;;;;;;;4.13;2.27;;;0.50;93.90;;;;;;2694100;53;20066;-42
2021/12/02 11:12:42;;;;;;;10.87;4.63;;;0.50;93.80;;;;;;2691575;53;20500;-42
2021/12/02 11:15:19;;;;;;;7.67;3.10;;;0.50;93.80;;;;;;2691369;53;20116;-43
2021/12/02 11:17:52;;;;;;;9.17;3.97;;;0.50;93.80;;;;;;2691361;53;20129;-42
2021/12/02 11:20:24;;;;;;;8.70;3.77;;;0.50;93.50;;;;;;2686634;53;20069;-40
2021/12/02 11:23:04;;;;;;;9.00;4.47;;;0.50;93.50;;;;;;2692009;53;20077;-36
2021/12/02 11:25:32;;;;;;;4.97;3.10;;;0.50;93.50;;;;;;2698617;53;20068;-40
2021/12/02 11:28:07;;;;;;;5.57;1.97;;;0.50;93.40;;;;;;2698635;53;20126;-41
2021/12/02 11:30:38;;;;;;;5.43;2.03;;;0.40;93.40;;;;;;2693747;53;20088;-49
2021/12/02 11:33:09;;;;;;;6.83;2.43;;;0.40;93.30;;;;;;2694184;53;20088;-45
2021/12/02 11:35:39;;;;;;;5.27;2.53;;;0.40;93.00;;;;;;2698334;53;20598;-44
2021/12/02 11:38:23;;;;;;;5.70;2.63;;;0.40;93.10;;;;;;2698531;52;20062;-41
2021/12/02 11:40:54;;;;;;;8.87;3.77;;;0.40;93.10;;;;;;2693722;53;20065;-41
2021/12/02 11:43:30;;;;;;;8.10;4.13;;;0.40;93.20;;;;;;2693711;53;20064;-40
2021/12/02 11:45:59;;;;;;;6.20;3.03;;;0.40;93.40;;;;;;2698466;53;20473;-43
2021/12/02 11:48:29;;;;;;;4.43;1.60;;;0.40;93.10;;;;;;2687952;53;20062;-56
2021/12/02 11:51:02;;;;;;;2.83;2.10;;;0.30;93.00;;;;;;2686908;53;20066;-53
2021/12/02 11:53:30;;;;;;;2.67;1.67;;;0.30;93.00;;;;;;2687047;53;20150;-37
2021/12/02 11:56:23;;;;;;;6.63;3.20;;;0.30;93.10;;;;;;2685153;53;20078;-45
2021/12/02 11:58:50;;;;;;;3.83;1.53;;;0.30;93.00;;;;;;2671374;53;20066;-44
2021/12/02 12:01:23;;;;;;;4.43;2.33;;;0.20;92.70;;;;;;2685568;53;20071;-43
2021/12/02 12:04:08;;;;;;;3.73;1.50;;;0.20;92.70;;;;;;2680846;53;20193;-42
2021/12/02 12:06:38;;;;;;;10.70;2.87;;;0.20;92.80;;;;;;2676068;53;20067;-44
2021/12/02 12:09:13;;;;;;;5.20;1.20;;;0.20;93.60;;;;;;2680709;53;20144;-43
2021/12/02 12:11:51;;;;;;;7.00;2.40;;;0.20;93.30;;;;;;2676095;53;20066;-41
2021/12/02 12:14:35;;;;;;;8.17;2.80;;;0.20;93.40;;;;;;2684344;53;20130;-43
2021/12/02 12:17:10;;;;;;;4.67;2.57;;;0.20;93.80;;;;;;2674820;53;20546;-41
2021/12/02 12:19:50;;;;;;;3.77;1.87;;;0.20;92.90;;;;;;2675147;53;20067;-42
2021/12/02 12:22:32;;;;;;;8.20;2.67;;;0.20;92.10;;;;;;2674970;53;20067;-40
2021/12/02 12:25:03;;;;;;;4.97;1.83;;;0.10;92.50;;;;;;2679635;53;20066;-41
2021/12/02 12:27:33;;;;;;;6.47;2.23;;;0.20;92.30;;;;;;2678681;53;20109;-41
2021/12/02 12:30:13;;;;;;;4.87;2.23;;;0.10;92.20;;;;;;2675851;53;20531;-42
2021/12/02 12:32:59;;;;;;;2.63;1.40;;;0.10;91.60;;;;;;2680868;53;20130;-41
2021/12/02 12:36:05;;;;;;;2.80;1.50;;;0.10;91.40;;;;;;2681349;53;20066;-42
2021/12/02 12:38:33;;;;;;;2.05;1.10;;;0.00;91.30;;;;;;2680837;53;20552;-44
2021/12/02 12:41:12;;;;;;;1.73;1.33;;;0.00;91.10;;;;;;2685308;53;20066;-46
2021/12/02 12:43:52;;;;;;;5.90;1.87;;;0.00;91.30;;;;;;2680602;53;20185;-39
2021/12/02 12:46:27;;;;;;;2.30;1.03;;;0.00;90.60;;;;;;2676403;53;20066;-40
2021/12/02 12:48:56;;;;;;;2.75;0.93;;;0.00;91.10;;;;;;2692337;53;20076;-39
2021/12/02 12:51:30;;;;;;;2.03;1.00;;;0.00;90.40;;;;;;2691765;53;20061;-38
2021/12/02 12:53:57;;;;;;;1.98;0.77;;;0.00;90.20;;;;;;2687121;53;20062;-38
2021/12/02 12:56:34;;;;;;;1.47;0.67;;;-0.10;90.80;;;;;;2682398;53;20447;-39
2021/12/02 12:59:10;;;;;;;4.33;1.00;;;-0.10;90.50;;;;;;2691897;53;20159;-47
2021/12/02 13:01:38;;;;;;;4.70;1.20;;;-0.10;90.40;;;;;;2687046;53;20136;-38
2021/12/02 13:04:16;;;;;;;1.60;0.50;;;-0.10;90.40;;;;;;2687213;53;20077;-37
2021/12/02 13:06:58;;;;;;;1.60;1.00;;;-0.10;89.20;;;;;;2686906;53;20070;-41
2021/12/02 13:09:47;;;;;;;2.57;1.00;;;-0.20;90.40;;;;;;2687120;53;20069;-39
2021/12/02 13:12:18;;;;;;;1.77;1.30;;;-0.20;90.40;;;;;;2687009;53;20070;-40
2021/12/02 13:14:48;;;;;;;1.83;0.80;;;-0.20;90.10;;;;;;2692217;53;20084;-40
2021/12/02 13:17:37;;;;;;;3.17;0.83;;;-0.20;87.60;;;;;;2691950;53;20081;-39
2021/12/02 13:20:41;;;;;;;0.97;0.47;;;-0.20;87.60;;;;;;2686598;53;20070;-50
2021/12/02 13:23:19;;;;;;;2.57;0.40;;;-0.20;88.00;;;;;;2687536;53;20069;-39